createdAt,value
2018-06-25T00:02:14.356Z,14.20
2018-06-25T00:04:42.645Z,14.20
2018-06-25T00:07:10.777Z,14.30
2018-06-25T00:09:38.872Z,14.30
2018-06-25T00:14:34.919Z,14.20
2018-06-25T00:17:03.101Z,14.20
2018-06-25T00:19:31.206Z,14.20
2018-06-25T00:21:59.392Z,14.10
2018-06-25T00:24:28.183Z,14.00
2018-06-25T00:26:56.310Z,14.00
2018-06-25T00:31:52.426Z,14.10
2018-06-25T00:34:20.509Z,14.10
2018-06-25T00:36:48.715Z,14.00
2018-06-25T00:39:16.837Z,14.00
2018-06-25T00:41:44.927Z,13.90
2018-06-25T00:44:13.080Z,13.90
2018-06-25T00:46:41.204Z,13.80
2018-06-25T00:49:09.284Z,13.80
2018-06-25T00:51:37.395Z,13.80
2018-06-25T00:54:05.854Z,13.80
2018-06-25T00:56:33.969Z,13.70
2018-06-25T00:59:13.290Z,13.70
2018-06-25T01:01:41.493Z,13.60
2018-06-25T01:04:09.597Z,13.60
2018-06-25T01:06:37.700Z,13.70
2018-06-25T01:09:09.716Z,13.70
2018-06-25T01:14:05.734Z,13.80
2018-06-25T01:16:34.178Z,13.80
2018-06-25T01:19:02.311Z,13.70
2018-06-25T01:21:30.440Z,13.70
2018-06-25T01:23:58.558Z,13.50
2018-06-25T01:26:26.733Z,13.50
2018-06-25T01:28:54.818Z,13.50
2018-06-25T01:31:22.955Z,13.40
2018-06-25T01:36:18.985Z,13.40
2018-06-25T01:38:47.084Z,13.30
2018-06-25T01:41:15.208Z,13.30
2018-06-25T01:43:43.322Z,13.30
2018-06-25T01:46:11.416Z,13.30
2018-06-25T01:48:39.550Z,13.30
2018-06-25T01:51:07.672Z,13.30
2018-06-25T01:53:35.765Z,13.40
2018-06-25T01:56:04.192Z,13.30
2018-06-25T01:58:32.263Z,13.20
2018-06-25T02:05:56.151Z,13.10
2018-06-25T02:08:24.243Z,13.10
2018-06-25T02:10:52.400Z,13.10
2018-06-25T02:13:20.495Z,13.20
2018-06-25T02:15:48.634Z,13.20
2018-06-25T02:18:16.823Z,13.20
2018-06-25T02:20:44.958Z,13.20
2018-06-25T02:23:13.033Z,13.20
2018-06-25T02:25:41.230Z,13.10
2018-06-25T02:28:09.316Z,13.10
2018-06-25T02:30:37.435Z,13.00
2018-06-25T02:33:05.578Z,13.00
2018-06-25T02:35:33.676Z,13.10
2018-06-25T02:38:01.757Z,13.00
2018-06-25T02:40:29.889Z,13.00
2018-06-25T02:42:57.973Z,13.00
2018-06-25T02:47:53.979Z,13.00
2018-06-25T02:50:22.168Z,13.00
2018-06-25T02:52:50.282Z,13.00
2018-06-25T02:55:18.348Z,13.00
2018-06-25T02:57:46.489Z,13.00
2018-06-25T03:00:14.648Z,13.00
2018-06-25T03:02:42.770Z,13.00
2018-06-25T03:05:10.968Z,13.00
2018-06-25T03:07:39.069Z,13.00
2018-06-25T03:10:07.331Z,12.90
2018-06-25T03:12:35.447Z,12.90
2018-06-25T03:15:03.721Z,13.00
2018-06-25T03:19:59.699Z,12.90
2018-06-25T03:22:27.826Z,12.90
2018-06-25T03:24:55.902Z,12.90
2018-06-25T03:27:24.173Z,12.90
2018-06-25T03:29:52.310Z,13.00
2018-06-25T03:32:20.425Z,13.00
2018-06-25T03:37:16.433Z,12.90
2018-06-25T03:39:44.610Z,12.90
2018-06-25T03:42:12.745Z,12.90
2018-06-25T03:44:40.804Z,12.80
2018-06-25T03:49:36.824Z,12.90
2018-06-25T03:52:04.975Z,12.90
2018-06-25T03:54:33.045Z,12.90
2018-06-25T03:57:01.133Z,12.90
2018-06-25T03:59:29.261Z,13.00
2018-06-25T04:01:57.312Z,13.00
2018-06-25T04:06:53.341Z,13.00
2018-06-25T04:09:21.440Z,13.00
2018-06-25T04:11:49.579Z,13.00
2018-06-25T04:16:45.544Z,13.10
2018-06-25T04:19:13.645Z,13.10
2018-06-25T04:21:41.790Z,13.10
2018-06-25T04:24:09.836Z,13.10
2018-06-25T04:26:37.897Z,13.00
2018-06-25T04:29:06.040Z,13.00
2018-06-25T04:31:34.301Z,13.10
2018-06-25T04:34:02.409Z,13.20
2018-06-25T04:41:26.340Z,13.30
2018-06-25T04:43:54.429Z,13.30
2018-06-25T04:46:22.592Z,13.30
2018-06-25T04:48:50.704Z,13.30
2018-06-25T04:51:18.835Z,13.40
2018-06-25T04:53:46.976Z,13.40
2018-06-25T04:56:15.120Z,13.50
2018-06-25T04:58:43.225Z,13.50
2018-06-25T05:01:11.308Z,13.40
2018-06-25T05:03:39.393Z,13.50
2018-06-25T05:06:07.484Z,13.40
2018-06-25T05:08:35.598Z,13.50
2018-06-25T05:11:03.771Z,13.50
2018-06-25T05:13:31.891Z,13.60
2018-06-25T05:16:00.105Z,13.60
2018-06-25T05:18:28.205Z,13.50
2018-06-25T05:20:56.349Z,13.50
2018-06-25T05:23:24.462Z,13.60
2018-06-25T05:25:52.575Z,13.60
2018-06-25T05:28:20.644Z,13.60
2018-06-25T05:30:48.757Z,13.70
2018-06-25T05:33:16.927Z,13.70
2018-06-25T05:35:45.068Z,13.70
2018-06-25T05:40:41.153Z,13.70
2018-06-25T05:43:09.280Z,13.70
2018-06-25T05:45:37.467Z,13.60
2018-06-25T05:48:05.770Z,13.70
2018-06-25T05:50:33.900Z,13.80
2018-06-25T05:53:01.966Z,13.90
2018-06-25T05:57:58.112Z,14.00
2018-06-25T06:07:49.809Z,14.10
2018-06-25T06:10:17.914Z,14.10
2018-06-25T06:12:46.051Z,14.10
2018-06-25T06:15:14.146Z,14.20
2018-06-25T06:17:42.301Z,14.20
2018-06-25T06:20:10.401Z,14.30
2018-06-25T06:22:38.479Z,14.30
2018-06-25T06:25:06.597Z,14.20
2018-06-25T06:27:34.732Z,14.10
2018-06-25T06:30:02.908Z,14.10
2018-06-25T06:32:31.068Z,14.10
2018-06-25T06:34:59.263Z,14.10
2018-06-25T06:37:27.426Z,14.10
2018-06-25T06:39:55.568Z,14.20
2018-06-25T06:42:23.826Z,14.30
2018-06-25T06:44:52.030Z,14.30
2018-06-25T06:47:20.164Z,14.20
2018-06-25T06:49:48.282Z,14.20
2018-06-25T06:52:16.458Z,14.30
2018-06-25T06:54:44.564Z,14.30
2018-06-25T06:57:12.671Z,14.30
2018-06-25T06:59:41.663Z,14.30
2018-06-25T07:02:09.756Z,14.30
2018-06-25T07:04:37.901Z,14.30
2018-06-25T07:09:34.019Z,14.30
2018-06-25T07:12:02.170Z,14.30
2018-06-25T07:14:30.330Z,14.30
2018-06-25T07:16:58.496Z,14.30
2018-06-25T07:19:26.626Z,14.50
2018-06-25T07:21:54.812Z,14.70
2018-06-25T07:24:22.919Z,14.80
2018-06-25T07:26:51.015Z,14.80
2018-06-25T07:29:19.142Z,14.80
2018-06-25T07:31:47.290Z,14.80
2018-06-25T07:34:15.442Z,15.00
2018-06-25T07:36:43.610Z,15.10
2018-06-25T07:39:11.783Z,15.10
2018-06-25T07:41:39.926Z,15.40
2018-06-25T07:44:08.064Z,15.70
2018-06-25T07:51:32.029Z,15.90
2018-06-25T07:54:00.166Z,15.80
2018-06-25T07:56:28.281Z,16.00
2018-06-25T07:58:56.400Z,15.90
2018-06-25T08:01:24.531Z,15.90
2018-06-25T08:03:52.638Z,16.00
2018-06-25T08:06:20.777Z,16.10
2018-06-25T08:08:48.918Z,16.20
2018-06-25T08:11:17.038Z,16.10
2018-06-25T08:13:45.168Z,16.20
2018-06-25T08:16:13.320Z,16.20
2018-06-25T08:18:41.642Z,16.00
2018-06-25T08:21:09.777Z,16.00
2018-06-25T08:23:37.957Z,15.90
2018-06-25T08:26:06.133Z,16.20
2018-06-25T08:28:34.327Z,16.60
2018-06-25T08:31:02.452Z,17.20
2018-06-25T08:35:58.646Z,17.30
2018-06-25T08:38:26.796Z,17.20
2018-06-25T08:40:55.053Z,17.40
2018-06-25T08:43:23.235Z,17.30
2018-06-25T08:45:51.421Z,17.60
2018-06-25T08:50:47.506Z,18.10
2018-06-25T08:53:15.627Z,17.80
2018-06-25T08:55:43.813Z,17.80
2018-06-25T08:58:11.929Z,17.50
2018-06-25T09:00:40.098Z,17.10
2018-06-25T09:03:08.324Z,17.00
2018-06-25T09:05:36.428Z,17.10
2018-06-25T09:08:04.807Z,17.00
2018-06-25T09:10:32.943Z,17.20
2018-06-25T09:13:01.127Z,17.70
2018-06-25T09:15:29.447Z,18.40
2018-06-25T09:17:57.520Z,18.80
2018-06-25T09:20:25.724Z,19.20
2018-06-25T09:25:21.984Z,19.20
2018-06-25T09:27:50.177Z,19.70
2018-06-25T09:32:47.426Z,19.30
2018-06-25T09:35:15.702Z,18.90
2018-06-25T09:37:43.878Z,18.80
2018-06-25T09:42:39.892Z,18.30
2018-06-25T09:45:09.243Z,18.50
2018-06-25T09:47:37.352Z,18.70
2018-06-25T09:50:05.566Z,18.60
2018-06-25T09:52:33.757Z,18.50
2018-06-25T09:57:29.858Z,18.30
2018-06-25T09:59:58.034Z,18.20
2018-06-25T10:02:26.190Z,17.90
2018-06-25T10:04:55.240Z,17.80
2018-06-25T10:07:23.641Z,17.50
2018-06-25T10:09:51.799Z,17.40
2018-06-25T10:12:19.946Z,17.10
2018-06-25T10:14:48.114Z,17.00
2018-06-25T10:17:17.031Z,16.90
2018-06-25T10:19:45.272Z,16.90
2018-06-25T10:22:13.387Z,16.90
2018-06-25T10:24:41.563Z,16.90
2018-06-25T10:27:09.717Z,17.00
2018-06-25T10:29:37.867Z,17.10
2018-06-25T10:34:34.025Z,17.40
2018-06-25T10:39:30.100Z,17.70
2018-06-25T10:41:58.290Z,17.80
2018-06-25T10:44:26.414Z,17.80
2018-06-25T10:46:54.583Z,17.80
2018-06-25T10:51:50.664Z,17.70
2018-06-25T10:54:18.831Z,17.70
2018-06-25T10:56:47.011Z,17.80
2018-06-25T10:59:15.182Z,17.80
2018-06-25T11:04:11.285Z,18.10
2018-06-25T11:06:39.496Z,18.10
2018-06-25T11:09:09.673Z,17.90
2018-06-25T11:11:37.840Z,17.90
2018-06-25T11:14:06.132Z,17.80
2018-06-25T11:16:34.299Z,17.70
2018-06-25T11:19:02.439Z,17.70
2018-06-25T11:21:30.618Z,17.60
2018-06-25T11:23:58.911Z,17.70
2018-06-25T11:26:27.049Z,17.60
2018-06-25T11:28:55.229Z,17.50
2018-06-25T11:31:23.439Z,17.50
2018-06-25T11:33:51.549Z,17.40
2018-06-25T11:36:20.136Z,17.30
2018-06-25T11:41:16.175Z,17.40
2018-06-25T11:43:44.249Z,17.30
2018-06-25T11:46:12.326Z,17.40
2018-06-25T11:48:40.491Z,17.40
2018-06-25T11:53:36.533Z,17.50
2018-06-25T11:56:04.817Z,17.70
2018-06-25T11:58:32.920Z,17.80
2018-06-25T12:01:01.072Z,18.00
2018-06-25T12:05:57.124Z,18.30
2018-06-25T12:08:25.287Z,18.30
2018-06-25T12:10:53.464Z,18.10
2018-06-25T12:13:21.617Z,18.10
2018-06-25T12:15:49.766Z,18.10
2018-06-25T12:18:17.958Z,18.00
2018-06-25T12:20:46.057Z,18.10
2018-06-25T12:25:42.107Z,18.10
2018-06-25T12:28:10.262Z,18.10
2018-06-25T12:33:06.602Z,18.00
2018-06-25T12:38:03.084Z,18.50
2018-06-25T12:42:59.093Z,18.40
2018-06-25T12:45:27.261Z,18.10
2018-06-25T12:47:55.493Z,18.10
2018-06-25T12:50:23.634Z,18.00
2018-06-25T12:52:51.812Z,18.10
2018-06-25T12:55:19.976Z,17.90
2018-06-25T12:57:48.121Z,18.00
2018-06-25T13:00:16.289Z,17.80
2018-06-25T13:02:44.523Z,17.70
2018-06-25T13:05:12.705Z,17.50
2018-06-25T13:07:40.829Z,17.50
2018-06-25T13:10:09.669Z,17.60
2018-06-25T13:12:37.785Z,17.60
2018-06-25T13:15:05.942Z,17.70
2018-06-25T13:17:34.101Z,17.70
2018-06-25T13:20:02.254Z,17.70
2018-06-25T13:22:31.168Z,17.60
2018-06-25T13:24:59.350Z,17.60
2018-06-25T13:27:27.500Z,17.60
2018-06-25T13:29:55.642Z,17.60
2018-06-25T13:32:23.765Z,17.70
2018-06-25T13:34:51.900Z,18.10
2018-06-25T13:37:20.081Z,18.00
2018-06-25T13:39:48.229Z,18.00
2018-06-25T13:42:16.444Z,18.10
2018-06-25T13:44:44.606Z,18.30
2018-06-25T13:47:12.817Z,18.50
2018-06-25T13:49:41.001Z,18.70
2018-06-25T13:52:09.141Z,19.00
2018-06-25T13:54:37.405Z,18.90
2018-06-25T13:59:34.799Z,19.10
2018-06-25T14:02:02.952Z,19.10
2018-06-25T14:04:31.166Z,19.00
2018-06-25T14:06:59.341Z,19.50
2018-06-25T14:09:27.457Z,19.70
2018-06-25T14:11:55.690Z,19.80
2018-06-25T14:14:23.914Z,19.90
2018-06-25T14:16:52.266Z,20.00
2018-06-25T14:19:20.333Z,20.30
2018-06-25T14:21:48.620Z,20.50
2018-06-25T14:24:22.299Z,20.40
2018-06-25T14:26:50.539Z,20.40
2018-06-25T14:29:24.170Z,20.60
2018-06-25T14:31:56.825Z,20.60
2018-06-25T14:34:25.050Z,20.60
2018-06-25T14:36:53.141Z,20.70
2018-06-25T14:39:21.325Z,20.80
2018-06-25T14:41:49.501Z,20.60
2018-06-25T14:44:17.651Z,20.60
2018-06-25T14:46:45.824Z,20.70
2018-06-25T14:49:14.015Z,20.60
2018-06-25T14:51:42.168Z,20.30
2018-06-25T14:54:10.306Z,20.10
2018-06-25T14:56:38.475Z,20.00
2018-06-25T14:59:06.656Z,19.90
2018-06-25T15:01:35.061Z,20.00
2018-06-25T15:04:03.255Z,20.00
2018-06-25T15:06:31.492Z,19.80
2018-06-25T15:08:59.570Z,19.40
2018-06-25T15:11:27.766Z,19.10
2018-06-25T15:13:55.866Z,19.10
2018-06-25T15:16:23.949Z,19.20
2018-06-25T15:18:52.046Z,19.30
2018-06-25T15:21:20.144Z,19.30
2018-06-25T15:23:49.772Z,19.30
2018-06-25T15:26:28.246Z,19.30
2018-06-25T15:32:48.405Z,19.50
2018-06-25T15:35:16.520Z,19.40
2018-06-25T15:37:44.611Z,19.40
2018-06-25T15:40:12.812Z,19.40
2018-06-25T15:42:40.945Z,19.40
2018-06-25T15:45:09.137Z,19.50
2018-06-25T15:47:37.309Z,19.60
2018-06-25T15:50:05.407Z,19.40
2018-06-25T15:52:33.473Z,19.50
2018-06-25T15:55:01.572Z,19.50
2018-06-25T15:57:29.670Z,19.60
2018-06-25T15:59:57.848Z,19.60
2018-06-25T16:02:25.943Z,19.70
2018-06-25T16:04:54.112Z,19.60
2018-06-25T16:07:22.253Z,19.70
2018-06-25T16:09:50.394Z,19.70
2018-06-25T16:12:18.491Z,19.70
2018-06-25T16:14:46.598Z,19.70
2018-06-25T16:17:14.760Z,19.80
2018-06-25T16:19:42.878Z,19.80
2018-06-25T16:22:10.955Z,19.80
2018-06-25T16:24:39.012Z,19.80
2018-06-25T16:27:07.207Z,19.80
2018-06-25T16:29:35.317Z,19.80
2018-06-25T16:34:31.436Z,19.70
2018-06-25T16:36:59.629Z,19.60
2018-06-25T16:39:27.745Z,19.50
2018-06-25T16:41:55.908Z,19.40
2018-06-25T16:44:24.019Z,19.40
2018-06-25T16:46:52.111Z,19.40
2018-06-25T16:49:20.240Z,19.30
2018-06-25T16:51:48.473Z,19.20
2018-06-25T16:54:16.697Z,19.10
2018-06-25T16:56:44.871Z,19.10
2018-06-25T16:59:12.997Z,19.00
2018-06-25T17:01:41.097Z,19.00
2018-06-25T17:04:09.152Z,18.90
2018-06-25T17:06:37.210Z,18.80
2018-06-25T17:11:35.680Z,18.80
2018-06-25T17:14:03.960Z,18.70
2018-06-25T17:19:00.252Z,18.60
2018-06-25T17:21:28.524Z,18.60
2018-06-25T17:23:56.730Z,18.60
2018-06-25T17:26:24.878Z,18.50
2018-06-25T17:28:53.007Z,18.40
2018-06-25T17:31:21.125Z,18.50
2018-06-25T17:33:49.394Z,18.50
2018-06-25T17:36:17.895Z,18.40
2018-06-25T17:38:46.175Z,18.40
2018-06-25T17:41:14.574Z,18.30
2018-06-25T17:43:42.789Z,18.20
2018-06-25T17:46:11.157Z,18.10
2018-06-25T17:48:39.436Z,18.00
2018-06-25T17:51:07.634Z,17.90
2018-06-25T17:53:35.819Z,17.80
2018-06-25T17:56:04.336Z,17.70
2018-06-25T17:58:32.539Z,17.60
2018-06-25T18:01:00.914Z,17.50
2018-06-25T18:03:29.158Z,17.30
2018-06-25T18:05:57.522Z,17.20
2018-06-25T18:08:25.753Z,17.10
2018-06-25T18:13:22.914Z,16.90
2018-06-25T18:18:19.200Z,16.80
2018-06-25T18:20:47.427Z,16.80
2018-06-25T18:23:15.725Z,16.80
2018-06-25T18:25:43.992Z,16.70
2018-06-25T18:28:12.294Z,16.70
2018-06-25T18:30:40.891Z,16.60
2018-06-25T18:33:09.117Z,16.60
2018-06-25T18:35:37.529Z,16.60
2018-06-25T18:38:05.899Z,16.50
2018-06-25T18:40:34.094Z,16.50
2018-06-25T18:43:02.199Z,16.40
2018-06-25T18:45:30.337Z,16.40
2018-06-25T18:47:58.536Z,16.30
2018-06-25T18:50:26.724Z,16.20
2018-06-25T18:52:54.925Z,16.10
2018-06-25T18:55:23.026Z,16.00
2018-06-25T18:57:51.150Z,16.00
2018-06-25T19:00:19.356Z,15.90
2018-06-25T19:05:16.148Z,15.70
2018-06-25T19:07:44.316Z,15.50
2018-06-25T19:10:12.486Z,15.50
2018-06-25T19:12:40.678Z,15.40
2018-06-25T19:15:08.826Z,15.30
2018-06-25T19:17:36.978Z,15.20
2018-06-25T19:20:05.437Z,15.10
2018-06-25T19:22:33.617Z,15.10
2018-06-25T19:25:01.836Z,15.00
2018-06-25T19:27:29.925Z,15.00
2018-06-25T19:29:58.053Z,14.90
2018-06-25T19:32:26.321Z,14.90
2018-06-25T19:34:54.509Z,14.80
2018-06-25T19:37:22.654Z,14.80
2018-06-25T19:39:50.967Z,14.70
2018-06-25T19:44:47.481Z,14.70
2018-06-25T19:47:15.815Z,14.60
2018-06-25T19:49:44.179Z,14.60
2018-06-25T19:52:12.412Z,14.60
2018-06-25T19:54:40.695Z,14.60
2018-06-25T19:57:08.859Z,14.60
2018-06-25T19:59:37.050Z,14.50
2018-06-25T20:02:05.189Z,14.40
2018-06-25T20:04:33.356Z,14.40
2018-06-25T20:07:01.622Z,14.50
2018-06-25T20:09:29.837Z,14.50
2018-06-25T20:11:58.061Z,14.40
2018-06-25T20:14:26.161Z,14.40
2018-06-25T20:16:54.367Z,14.40
2018-06-25T20:19:22.562Z,14.40
2018-06-25T20:21:50.688Z,14.40
2018-06-25T20:24:18.930Z,14.40
2018-06-25T20:26:47.085Z,14.40
2018-06-25T20:29:15.331Z,14.40
2018-06-25T20:31:43.474Z,14.30
2018-06-25T20:34:11.705Z,14.30
2018-06-25T20:36:39.875Z,14.30
2018-06-25T20:39:09.835Z,14.30
2018-06-25T20:41:38.074Z,14.30
2018-06-25T20:44:06.289Z,14.30
2018-06-25T20:46:34.909Z,14.30
2018-06-25T20:49:03.236Z,14.20
2018-06-25T20:51:31.410Z,14.20
2018-06-25T20:53:59.592Z,14.20
2018-06-25T20:56:27.787Z,14.10
2018-06-25T20:58:55.962Z,14.10
2018-06-25T21:01:24.144Z,14.10
2018-06-25T21:03:52.284Z,14.10
2018-06-25T21:06:20.425Z,14.10
2018-06-25T21:08:48.610Z,14.00
2018-06-25T21:11:16.741Z,14.10
2018-06-25T21:13:44.982Z,14.10
2018-06-25T21:16:13.122Z,14.10
2018-06-25T21:18:41.229Z,14.00
2018-06-25T21:23:37.343Z,13.90
2018-06-25T21:26:05.541Z,13.90
2018-06-25T21:28:33.663Z,13.90
2018-06-25T21:31:01.869Z,13.80
2018-06-25T21:33:29.989Z,13.80
2018-06-25T21:35:58.265Z,13.80
2018-06-25T21:38:26.339Z,13.80
2018-06-25T21:40:54.441Z,13.80
2018-06-25T21:43:22.599Z,13.80
2018-06-25T21:45:50.690Z,13.80
2018-06-25T21:48:18.811Z,13.80
2018-06-25T21:50:46.884Z,13.80
2018-06-25T21:53:15.028Z,13.80
2018-06-25T21:55:43.161Z,13.90
2018-06-25T21:58:11.246Z,13.90
2018-06-25T22:00:46.494Z,13.90
2018-06-25T22:03:14.994Z,13.90
2018-06-25T22:05:43.179Z,13.90
2018-06-25T22:10:39.562Z,13.90
2018-06-25T22:13:07.899Z,13.90
2018-06-25T22:15:36.310Z,13.90
2018-06-25T22:18:05.731Z,13.90
2018-06-25T22:20:33.974Z,13.90
2018-06-25T22:23:02.190Z,13.90
2018-06-25T22:25:30.311Z,13.90
2018-06-25T22:27:58.446Z,13.80
2018-06-25T22:30:26.600Z,13.80
2018-06-25T22:32:54.697Z,13.90
2018-06-25T22:35:23.243Z,13.90
2018-06-25T22:37:51.359Z,13.90
2018-06-25T22:40:19.631Z,13.90
2018-06-25T22:42:48.480Z,13.90
2018-06-25T22:45:16.600Z,13.90
2018-06-25T22:47:45.233Z,13.90
2018-06-25T22:52:41.168Z,14.00
2018-06-25T22:55:09.323Z,13.90
2018-06-25T22:57:37.549Z,13.90
2018-06-25T23:00:06.197Z,13.90
2018-06-25T23:02:34.477Z,13.90
2018-06-25T23:05:02.775Z,13.90
2018-06-25T23:07:30.936Z,13.80
2018-06-25T23:09:59.015Z,13.80
2018-06-25T23:12:27.257Z,13.80
2018-06-25T23:14:55.415Z,13.80
2018-06-25T23:17:23.538Z,13.80
2018-06-25T23:19:51.613Z,13.70
2018-06-25T23:22:19.742Z,13.70
2018-06-25T23:30:37.423Z,13.50
2018-06-25T23:33:05.547Z,13.50
2018-06-25T23:35:33.725Z,13.50
2018-06-25T23:38:01.756Z,13.40
2018-06-25T23:40:29.953Z,13.40
2018-06-25T23:43:00.964Z,13.40
2018-06-25T23:45:29.104Z,13.40
2018-06-25T23:47:57.228Z,13.30
2018-06-25T23:57:48.967Z,13.30
